Time,TemperatureF,DewpointF,PressureIn,WindDirection,WindDirectionDegrees,WindSpeedMPH,WindSpeedGustMPH,Humidity,HourlyPrecipIn,Conditions,Clouds,dailyrainin,SoftwareType,DateUTC
2013-03-02 00:01:00,45.0,19.0,30.11,East,99,1.0,2.0,35,0.00,,,0.00,,2013-03-02 07:01:00,
2013-03-02 00:11:00,45.0,21.0,30.11,NNW,335,4.0,5.0,38,0.00,,,0.00,,2013-03-02 07:11:00,
2013-03-02 00:21:00,45.0,21.0,30.11,NNW,335,4.0,5.0,38,0.00,,,0.00,,2013-03-02 07:21:00,
2013-03-02 00:32:00,45.0,20.0,30.12,NW,319,4.0,5.0,37,0.00,,,0.00,,2013-03-02 07:32:00,
2013-03-02 00:42:00,45.0,20.0,30.12,NW,319,4.0,5.0,37,0.00,,,0.00,,2013-03-02 07:42:00,
2013-03-02 00:52:00,45.0,20.0,30.12,West,270,0.0,2.0,37,0.00,,,0.00,,2013-03-02 07:52:00,
2013-03-02 01:01:00,43.0,19.0,30.12,NNE,30,1.0,3.0,37,0.00,,,0.00,,2013-03-02 08:01:00,
2013-03-02 01:11:00,43.0,19.0,30.12,NNE,30,1.0,3.0,37,0.00,,,0.00,,2013-03-02 08:11:00,
2013-03-02 01:21:00,41.0,17.0,30.12,NE,45,1.0,1.0,38,0.00,,,0.00,,2013-03-02 08:21:00,
2013-03-02 01:32:00,40.0,17.0,30.12,NE,35,1.0,2.0,39,0.00,,,0.00,,2013-03-02 08:32:00,
2013-03-02 01:42:00,40.0,17.0,30.12,NE,35,1.0,2.0,39,0.00,,,0.00,,2013-03-02 08:42:00,
2013-03-02 01:52:00,40.0,18.0,30.12,NE,56,1.0,4.0,41,0.00,,,0.00,,2013-03-02 08:52:00,
2013-03-02 02:01:00,40.0,19.0,30.12,East,86,1.0,2.0,42,0.00,,,0.00,,2013-03-02 09:01:00,
2013-03-02 02:11:00,39.0,18.0,30.12,NE,45,1.0,1.0,42,0.00,,,0.00,,2013-03-02 09:11:00,
2013-03-02 02:21:00,39.0,18.0,30.12,NE,45,1.0,1.0,42,0.00,,,0.00,,2013-03-02 09:21:00,
2013-03-02 02:31:00,39.0,18.0,30.12,NNE,33,1.0,2.0,43,0.00,,,0.00,,2013-03-02 09:31:00,
2013-03-02 02:42:00,39.0,18.0,30.12,NNE,33,1.0,2.0,43,0.00,,,0.00,,2013-03-02 09:42:00,
2013-03-02 02:52:00,39.0,19.0,30.12,NNE,15,1.0,3.0,44,0.00,,,0.00,,2013-03-02 09:52:00,
2013-03-02 03:01:00,39.0,19.0,30.11,North,10,1.0,2.0,45,0.00,,,0.00,,2013-03-02 10:01:00,
2013-03-02 03:15:00,39.0,19.0,30.11,North,10,1.0,2.0,45,0.00,,,0.00,,2013-03-02 10:15:00,
2013-03-02 03:22:00,38.0,18.0,30.11,NE,45,1.0,1.0,44,0.00,,,0.00,,2013-03-02 10:22:00,
2013-03-02 03:31:00,37.0,18.0,30.11,North,7,0.0,1.0,45,0.00,,,0.00,,2013-03-02 10:31:00,
2013-03-02 03:42:00,37.0,18.0,30.11,North,7,0.0,1.0,45,0.00,,,0.00,,2013-03-02 10:42:00,
2013-03-02 03:52:00,37.0,18.0,30.11,East,90,1.0,1.0,45,0.00,,,0.00,,2013-03-02 10:52:00,
2013-03-02 04:01:00,36.0,17.0,30.12,East,96,2.0,3.0,46,0.00,,,0.00,,2013-03-02 11:01:00,
2013-03-02 04:11:00,36.0,17.0,30.12,East,96,2.0,3.0,46,0.00,,,0.00,,2013-03-02 11:11:00,
2013-03-02 04:21:00,36.0,18.0,30.12,East,95,1.0,3.0,47,0.00,,,0.00,,2013-03-02 11:21:00,
2013-03-02 04:32:00,35.0,17.0,30.13,SW,225,1.0,1.0,47,0.00,,,0.00,,2013-03-02 11:32:00,
2013-03-02 04:42:00,35.0,17.0,30.13,SW,225,1.0,1.0,47,0.00,,,0.00,,2013-03-02 11:42:00,
2013-03-02 04:52:00,35.0,17.0,30.13,ESE,113,1.0,1.0,47,0.00,,,0.00,,2013-03-02 11:52:00,
2013-03-02 05:02:00,34.0,16.0,30.13,ESE,113,0.0,0.0,48,0.00,,,0.00,,2013-03-02 12:02:00,
2013-03-02 05:11:00,34.0,16.0,30.13,ESE,113,0.0,0.0,48,0.00,,,0.00,,2013-03-02 12:11:00,
2013-03-02 05:21:00,33.0,16.0,30.13,ESE,113,0.0,0.0,49,0.00,,,0.00,,2013-03-02 12:21:00,
2013-03-02 05:32:00,33.0,16.0,30.13,North,4,1.0,2.0,50,0.00,,,0.00,,2013-03-02 12:32:00,
2013-03-02 05:43:00,33.0,16.0,30.13,North,4,1.0,2.0,50,0.00,,,0.00,,2013-03-02 12:43:00,
2013-03-02 05:53:00,34.0,19.0,30.14,North,6,2.0,3.0,53,0.00,,,0.00,,2013-03-02 12:53:00,
2013-03-02 06:01:00,35.0,19.0,30.14,North,6,1.0,2.0,52,0.00,,,0.00,,2013-03-02 13:01:00,
2013-03-02 06:11:00,35.0,19.0,30.14,North,6,1.0,2.0,52,0.00,,,0.00,,2013-03-02 13:11:00,
2013-03-02 06:21:00,35.0,18.0,30.14,East,81,1.0,1.0,50,0.00,,,0.00,,2013-03-02 13:21:00,
2013-03-02 06:31:00,34.0,18.0,30.14,NNE,31,1.0,2.0,51,0.00,,,0.00,,2013-03-02 13:31:00,
2013-03-02 06:41:00,34.0,18.0,30.14,NNE,31,1.0,2.0,51,0.00,,,0.00,,2013-03-02 13:41:00,
2013-03-02 06:52:00,33.0,17.0,30.14,NE,45,0.0,1.0,52,0.00,,,0.00,,2013-03-02 13:52:00,
2013-03-02 07:01:00,33.0,17.0,30.15,NNE,23,1.0,1.0,52,0.00,,,0.00,,2013-03-02 14:01:00,
2013-03-02 07:11:00,33.0,17.0,30.15,NNE,23,1.0,1.0,52,0.00,,,0.00,,2013-03-02 14:11:00,
2013-03-02 07:21:00,33.0,18.0,30.15,East,84,1.0,1.0,53,0.00,,,0.00,,2013-03-02 14:21:00,
2013-03-02 07:32:00,34.0,20.0,30.15,North,0,0.0,1.0,55,0.00,,,0.00,,2013-03-02 14:32:00,
2013-03-02 07:42:00,34.0,20.0,30.15,North,0,0.0,1.0,55,0.00,,,0.00,,2013-03-02 14:42:00,
2013-03-02 07:52:00,36.0,20.0,30.16,NNW,333,3.0,4.0,52,0.00,,,0.00,,2013-03-02 14:52:00,
2013-03-02 08:02:00,38.0,21.0,30.16,NNW,348,2.0,3.0,49,0.00,,,0.00,,2013-03-02 15:02:00,
2013-03-02 08:11:00,38.0,21.0,30.16,NNW,348,2.0,3.0,49,0.00,,,0.00,,2013-03-02 15:11:00,
2013-03-02 08:21:00,39.0,21.0,30.16,NW,308,2.0,4.0,48,0.00,,,0.00,,2013-03-02 15:21:00,
2013-03-02 08:31:00,40.0,21.0,30.16,NW,315,2.0,4.0,47,0.00,,,0.00,,2013-03-02 15:31:00,
2013-03-02 08:42:00,40.0,21.0,30.16,NW,315,2.0,4.0,47,0.00,,,0.00,,2013-03-02 15:42:00,
2013-03-02 08:52:00,41.0,21.0,30.16,North,6,2.0,4.0,45,0.00,,,0.00,,2013-03-02 15:52:00,
2013-03-02 09:01:00,43.0,22.0,30.17,NNW,334,4.0,6.0,43,0.00,,,0.00,,2013-03-02 16:01:00,
2013-03-02 09:11:00,43.0,22.0,30.17,NNW,334,4.0,6.0,43,0.00,,,0.00,,2013-03-02 16:11:00,
2013-03-02 09:21:00,44.0,22.0,30.17,NNW,343,4.0,5.0,42,0.00,,,0.00,,2013-03-02 16:21:00,
2013-03-02 09:31:00,45.0,22.0,30.17,NNW,342,4.0,6.0,40,0.00,,,0.00,,2013-03-02 16:31:00,
2013-03-02 09:41:00,45.0,22.0,30.17,NNW,342,4.0,6.0,40,0.00,,,0.00,,2013-03-02 16:41:00,
2013-03-02 09:52:00,47.0,23.0,30.16,NNW,340,5.0,8.0,38,0.00,,,0.00,,2013-03-02 16:52:00,
2013-03-02 10:01:00,48.0,23.0,30.16,NNW,338,5.0,9.0,37,0.00,,,0.00,,2013-03-02 17:01:00,
2013-03-02 10:11:00,49.0,23.0,30.15,NW,325,4.0,8.0,36,0.00,,,0.00,,2013-03-02 17:11:00,
2013-03-02 10:21:00,49.0,23.0,30.15,NW,325,4.0,8.0,36,0.00,,,0.00,,2013-03-02 17:21:00,
2013-03-02 10:32:00,51.0,23.0,30.15,WNW,300,4.0,8.0,33,0.00,,,0.00,,2013-03-02 17:32:00,
2013-03-02 10:42:00,51.0,23.0,30.15,WNW,300,4.0,8.0,33,0.00,,,0.00,,2013-03-02 17:42:00,
2013-03-02 10:52:00,52.0,23.0,30.14,NNW,335,5.0,6.0,32,0.00,,,0.00,,2013-03-02 17:52:00,
2013-03-02 11:01:00,54.0,23.0,30.13,North,351,4.0,7.0,30,0.00,,,0.00,,2013-03-02 18:01:00,
2013-03-02 11:11:00,54.0,23.0,30.13,North,351,4.0,7.0,30,0.00,,,0.00,,2013-03-02 18:11:00,
2013-03-02 11:22:00,54.0,23.0,30.13,WNW,294,4.0,6.0,30,0.00,,,0.00,,2013-03-02 18:22:00,
2013-03-02 11:32:00,56.0,24.0,30.13,North,0,2.0,3.0,29,0.00,,,0.00,,2013-03-02 18:32:00,
2013-03-02 11:42:00,56.0,24.0,30.13,North,0,2.0,3.0,29,0.00,,,0.00,,2013-03-02 18:42:00,
2013-03-02 11:52:00,56.0,24.0,30.12,NW,324,1.0,5.0,29,0.00,,,0.00,,2013-03-02 18:52:00,
2013-03-02 12:01:00,57.0,24.0,30.11,North,7,3.0,5.0,28,0.00,,,0.00,,2013-03-02 19:01:00,
2013-03-02 12:11:00,57.0,24.0,30.11,North,7,3.0,5.0,28,0.00,,,0.00,,2013-03-02 19:11:00,
2013-03-02 12:21:00,58.0,25.0,30.10,West,281,3.0,8.0,28,0.00,,,0.00,,2013-03-02 19:21:00,
2013-03-02 12:32:00,59.0,25.0,30.10,WSW,257,3.0,10.0,27,0.00,,,0.00,,2013-03-02 19:32:00,
2013-03-02 12:42:00,59.0,25.0,30.10,WSW,257,3.0,10.0,27,0.00,,,0.00,,2013-03-02 19:42:00,
2013-03-02 12:52:00,60.0,24.0,30.08,NNW,337,3.0,5.0,25,0.00,,,0.00,,2013-03-02 19:52:00,
2013-03-02 13:01:00,62.0,25.0,30.07,West,264,5.0,6.0,24,0.00,,,0.00,,2013-03-02 20:01:00,
2013-03-02 13:11:00,62.0,25.0,30.07,West,264,5.0,6.0,24,0.00,,,0.00,,2013-03-02 20:11:00,
2013-03-02 13:22:00,62.0,24.0,30.07,WNW,296,6.0,9.0,23,0.00,,,0.00,,2013-03-02 20:22:00,
2013-03-02 13:32:00,61.0,24.0,30.06,West,263,3.0,7.0,24,0.00,,,0.00,,2013-03-02 20:32:00,
2013-03-02 13:42:00,61.0,24.0,30.06,West,263,3.0,7.0,24,0.00,,,0.00,,2013-03-02 20:42:00,
2013-03-02 13:52:00,62.0,25.0,30.05,WSW,239,6.0,9.0,24,0.00,,,0.00,,2013-03-02 20:52:00,
2013-03-02 14:02:00,64.0,26.0,30.05,SW,227,5.0,9.0,24,0.00,,,0.00,,2013-03-02 21:02:00,
2013-03-02 14:11:00,64.0,26.0,30.05,SW,227,5.0,9.0,24,0.00,,,0.00,,2013-03-02 21:11:00,
2013-03-02 14:22:00,65.0,25.0,30.04,WSW,254,3.0,7.0,22,0.00,,,0.00,,2013-03-02 21:22:00,
2013-03-02 14:32:00,65.0,25.0,30.03,South,183,3.0,8.0,22,0.00,,,0.00,,2013-03-02 21:32:00,
2013-03-02 14:42:00,65.0,25.0,30.03,South,183,3.0,8.0,22,0.00,,,0.00,,2013-03-02 21:42:00,
2013-03-02 14:52:00,66.0,26.0,30.03,SW,228,2.0,7.0,22,0.00,,,0.00,,2013-03-02 21:52:00,
2013-03-02 15:02:00,67.0,26.0,30.02,SE,125,2.0,6.0,21,0.00,,,0.00,,2013-03-02 22:02:00,
2013-03-02 15:11:00,67.0,26.0,30.02,SE,125,2.0,6.0,21,0.00,,,0.00,,2013-03-02 22:11:00,
2013-03-02 15:21:00,67.0,26.0,30.02,SSW,193,3.0,6.0,21,0.00,,,0.00,,2013-03-02 22:21:00,
2013-03-02 15:32:00,67.0,23.0,30.01,West,268,4.0,6.0,19,0.00,,,0.00,,2013-03-02 22:32:00,
2013-03-02 15:42:00,67.0,23.0,30.01,West,268,4.0,6.0,19,0.00,,,0.00,,2013-03-02 22:42:00,
2013-03-02 15:52:00,67.0,23.0,30.00,West,275,4.0,6.0,19,0.00,,,0.00,,2013-03-02 22:52:00,
2013-03-02 16:01:00,67.0,26.0,30.00,SSE,159,4.0,7.0,21,0.00,,,0.00,,2013-03-02 23:01:00,
2013-03-02 16:11:00,67.0,26.0,29.99,South,181,4.0,7.0,21,0.00,,,0.00,,2013-03-02 23:11:00,
2013-03-02 16:21:00,67.0,26.0,29.99,South,181,4.0,7.0,21,0.00,,,0.00,,2013-03-02 23:21:00,
2013-03-02 16:32:00,66.0,25.0,29.98,SW,229,4.0,7.0,21,0.00,,,0.00,,2013-03-02 23:32:00,
2013-03-02 16:42:00,66.0,25.0,29.98,SW,229,4.0,7.0,21,0.00,,,0.00,,2013-03-02 23:42:00,
2013-03-02 16:52:00,66.0,23.0,29.98,West,274,2.0,6.0,19,0.00,,,0.00,,2013-03-02 23:52:00,
2013-03-02 17:02:00,65.0,24.0,29.97,SW,231,3.0,5.0,21,0.00,,,0.00,,2013-03-03 00:02:00,
2013-03-02 17:11:00,65.0,24.0,29.97,SW,231,3.0,5.0,21,0.00,,,0.00,,2013-03-03 00:11:00,
2013-03-02 17:22:00,65.0,23.0,29.98,WNW,290,4.0,5.0,20,0.00,,,0.00,,2013-03-03 00:22:00,
2013-03-02 17:32:00,65.0,24.0,29.98,South,177,2.0,5.0,21,0.00,,,0.00,,2013-03-03 00:32:00,
2013-03-02 17:42:00,65.0,24.0,29.98,South,177,2.0,5.0,21,0.00,,,0.00,,2013-03-03 00:42:00,
2013-03-02 17:52:00,64.0,23.0,29.98,SW,222,2.0,4.0,21,0.00,,,0.00,,2013-03-03 00:52:00,
2013-03-02 18:01:00,64.0,23.0,29.98,SW,217,1.0,3.0,21,0.00,,,0.00,,2013-03-03 01:01:00,
2013-03-02 18:11:00,64.0,23.0,29.98,SW,217,1.0,3.0,21,0.00,,,0.00,,2013-03-03 01:11:00,
2013-03-02 18:21:00,63.0,24.0,29.99,SSE,164,1.0,2.0,22,0.00,,,0.00,,2013-03-03 01:21:00,
2013-03-02 18:31:00,61.0,21.0,29.99,SSE,158,0.0,0.0,21,0.00,,,0.00,,2013-03-03 01:31:00,
2013-03-02 18:41:00,61.0,21.0,29.99,SSE,158,0.0,0.0,21,0.00,,,0.00,,2013-03-03 01:41:00,
2013-03-02 18:52:00,60.0,21.0,29.99,SE,135,0.0,0.0,22,0.00,,,0.00,,2013-03-03 01:52:00,
2013-03-02 19:01:00,58.0,20.0,29.99,SE,135,1.0,1.0,23,0.00,,,0.00,,2013-03-03 02:01:00,
2013-03-02 19:11:00,57.0,21.0,29.99,ESE,118,1.0,1.0,24,0.00,,,0.00,,2013-03-03 02:11:00,
2013-03-02 19:21:00,57.0,21.0,29.99,ESE,118,1.0,1.0,24,0.00,,,0.00,,2013-03-03 02:21:00,
2013-03-02 19:31:00,56.0,21.0,29.99,SSE,158,1.0,4.0,25,0.00,,,0.00,,2013-03-03 02:31:00,
2013-03-02 19:41:00,56.0,21.0,29.99,SSE,158,1.0,4.0,25,0.00,,,0.00,,2013-03-03 02:41:00,
2013-03-02 19:52:00,55.0,20.0,29.99,SE,137,1.0,2.0,25,0.00,,,0.00,,2013-03-03 02:52:00,
2013-03-02 20:01:00,54.0,21.0,29.99,ESE,113,1.0,3.0,27,0.00,,,0.00,,2013-03-03 03:01:00,
2013-03-02 20:11:00,54.0,21.0,29.99,ESE,113,1.0,3.0,27,0.00,,,0.00,,2013-03-03 03:11:00,
2013-03-02 20:21:00,54.0,22.0,30.00,East,89,1.0,3.0,28,0.00,,,0.00,,2013-03-03 03:21:00,
2013-03-02 20:31:00,53.0,21.0,30.00,SSW,203,0.0,2.0,28,0.00,,,0.00,,2013-03-03 03:31:00,
2013-03-02 20:41:00,53.0,21.0,30.00,SSW,203,0.0,2.0,28,0.00,,,0.00,,2013-03-03 03:41:00,
2013-03-02 20:51:00,52.0,21.0,30.00,ESE,113,1.0,1.0,29,0.00,,,0.00,,2013-03-03 03:51:00,
2013-03-02 21:01:00,52.0,22.0,30.00,East,92,2.0,2.0,30,0.00,,,0.00,,2013-03-03 04:01:00,
2013-03-02 21:11:00,52.0,22.0,30.00,East,92,2.0,2.0,30,0.00,,,0.00,,2013-03-03 04:11:00,
2013-03-02 21:21:00,51.0,21.0,30.00,SE,135,1.0,1.0,31,0.00,,,0.00,,2013-03-03 04:21:00,
2013-03-02 21:31:00,50.0,21.0,30.00,East,90,2.0,3.0,31,0.00,,,0.00,,2013-03-03 04:31:00,
2013-03-02 21:41:00,50.0,21.0,30.00,East,90,2.0,3.0,31,0.00,,,0.00,,2013-03-03 04:41:00,
2013-03-02 21:52:00,49.0,20.0,30.00,East,90,1.0,1.0,32,0.00,,,0.00,,2013-03-03 04:52:00,
2013-03-02 22:02:00,49.0,20.0,30.00,East,89,1.0,2.0,32,0.00,,,0.00,,2013-03-03 05:02:00,
2013-03-02 22:11:00,49.0,20.0,30.00,East,89,1.0,2.0,32,0.00,,,0.00,,2013-03-03 05:11:00,
2013-03-02 22:22:00,48.0,20.0,30.00,East,90,0.0,1.0,33,0.00,,,0.00,,2013-03-03 05:22:00,
2013-03-02 22:32:00,47.0,20.0,30.00,ESE,113,1.0,2.0,34,0.00,,,0.00,,2013-03-03 05:32:00,
2013-03-02 22:42:00,47.0,20.0,30.00,ESE,113,1.0,2.0,34,0.00,,,0.00,,2013-03-03 05:42:00,
2013-03-02 22:52:00,46.0,19.0,30.00,ESE,102,1.0,2.0,33,0.00,,,0.00,,2013-03-03 05:52:00,
2013-03-02 23:01:00,46.0,20.0,30.00,East,94,1.0,2.0,35,0.00,,,0.00,,2013-03-03 06:01:00,
2013-03-02 23:11:00,46.0,20.0,30.00,East,94,1.0,2.0,35,0.00,,,0.00,,2013-03-03 06:11:00,
2013-03-02 23:21:00,45.0,19.0,30.00,East,90,2.0,2.0,35,0.00,,,0.00,,2013-03-03 06:21:00,
2013-03-02 23:31:00,45.0,20.0,29.99,East,90,1.0,2.0,36,0.00,,,0.00,,2013-03-03 06:31:00,
2013-03-02 23:42:00,45.0,20.0,29.99,East,90,1.0,2.0,36,0.00,,,0.00,,2013-03-03 06:42:00,
2013-03-02 23:52:00,44.0,19.0,29.99,East,90,1.0,1.0,36,0.00,,,0.00,,2013-03-03 06:52:00,